Time;durP1;ratioP1;P1;durP2;ratioP2;P2;SDS_P1;SDS_P2;PMS_P1;PMS_P2;Temp;Humidity;BMP_temperature;BMP_pressure;BME280_temperature;BME280_humidity;BME280_pressure;Samples;Min_cycle;Max_cycle;Signal;HPM_P1;HPM_P2
2022/11/06 00:00:57;;;;;;;19.08;10.68;;;;;;;13.02;83.12;99785.03;5046170;28;20032;-27
2022/11/06 00:03:24;;;;;;;27.23;12.90;;;;;;;12.92;82.86;99781.38;5046134;28;20040;-27
2022/11/06 00:08:37;;;;;;;20.45;11.98;;;;;;;12.99;82.01;99784.69;5068672;28;20047;-27
2022/11/06 00:11:14;;;;;;;18.13;12.07;;;;;;;13.04;81.66;99800.84;5051648;28;20081;-27
2022/11/06 00:13:41;;;;;;;17.92;12.57;;;;;;;12.96;81.20;99788.66;5069599;28;20029;-28
2022/11/06 00:16:08;;;;;;;19.90;11.40;;;;;;;13.11;80.49;99801.50;5069520;28;20127;-29
2022/11/06 00:18:34;;;;;;;20.20;10.97;;;;;;;13.10;80.22;99794.53;5069199;28;20021;-27
2022/11/06 00:21:19;;;;;;;24.20;12.40;;;;;;;12.98;80.62;99796.47;5069528;28;20394;-28
2022/11/06 00:23:45;;;;;;;19.88;11.45;;;;;;;12.95;80.57;99799.59;5051316;28;20032;-27
2022/11/06 00:26:14;;;;;;;20.98;10.95;;;;;;;12.94;80.36;99792.66;5069253;28;20041;-27
2022/11/06 00:28:40;;;;;;;19.83;11.30;;;;;;;12.88;80.21;99775.69;5069178;28;20033;-27
2022/11/06 00:31:12;;;;;;;17.60;11.18;;;;;;;13.00;80.23;99789.81;5069254;28;20103;-27
2022/11/06 00:33:37;;;;;;;21.48;12.48;;;;;;;12.91;80.49;99788.56;5069239;28;20024;-28
2022/11/06 00:36:05;;;;;;;15.80;11.55;;;;;;;13.09;79.81;99778.72;5069021;28;20029;-27
2022/11/06 00:38:30;;;;;;;19.03;11.63;;;;;;;13.22;79.17;99779.22;5068949;28;20024;-27
2022/11/06 00:40:56;;;;;;;20.73;12.13;;;;;;;13.09;79.89;99776.84;5069186;28;20028;-26
2022/11/06 00:43:21;;;;;;;21.63;12.15;;;;;;;13.01;80.37;99779.91;5069095;28;20044;-27
2022/11/06 00:45:47;;;;;;;24.05;12.18;;;;;;;12.88;80.66;99761.50;5068567;28;20028;-28
2022/11/06 00:48:12;;;;;;;19.73;11.63;;;;;;;12.84;80.97;99769.19;5068799;28;20036;-27
2022/11/06 00:50:37;;;;;;;21.20;12.50;;;;;;;12.84;80.72;99775.34;5068958;28;20032;-26
2022/11/06 00:53:03;;;;;;;16.98;11.45;;;;;;;12.65;81.40;99771.28;5068992;28;20029;-28
2022/11/06 00:55:28;;;;;;;18.73;11.82;;;;;;;12.59;81.14;99772.22;5068759;28;20032;-27
2022/11/06 00:57:54;;;;;;;19.83;11.73;;;;;;;12.69;80.80;99775.09;5068765;28;20032;-27
2022/11/06 01:00:19;;;;;;;19.60;12.73;;;;;;;12.58;80.75;99767.91;5068767;28;20586;-27
2022/11/06 01:02:45;;;;;;;20.85;11.43;;;;;;;12.42;80.88;99767.63;5068847;28;20031;-26
2022/11/06 01:05:11;;;;;;;18.52;12.07;;;;;;;12.48;80.98;99781.09;5068940;28;20078;-26
2022/11/06 01:07:37;;;;;;;24.00;13.23;;;;;;;12.52;81.22;99783.03;5068358;28;20216;-28
2022/11/06 01:10:04;;;;;;;25.05;12.23;;;;;;;12.46;81.36;99784.84;5068317;28;20484;-27
2022/11/06 01:12:31;;;;;;;21.45;12.00;;;;;;;12.43;81.29;99779.13;5068406;28;20036;-27
2022/11/06 01:14:56;;;;;;;21.20;12.23;;;;;;;12.72;80.22;99787.16;5068285;28;20033;-26
2022/11/06 01:17:21;;;;;;;21.88;12.40;;;;;;;12.61;80.50;99791.53;5068793;28;20039;-26
2022/11/06 01:19:47;;;;;;;18.60;12.27;;;;;;;12.78;80.26;99789.69;5067204;28;20460;-27
2022/11/06 01:22:13;;;;;;;23.45;13.02;;;;;;;12.74;80.17;99785.88;5068343;28;20068;-26
2022/11/06 01:24:38;;;;;;;24.77;12.82;;;;;;;12.73;80.20;99786.94;5068389;28;20029;-27
2022/11/06 01:27:04;;;;;;;21.13;10.85;;;;;;;12.56;81.09;99794.09;5068393;28;20093;-26
2022/11/06 01:29:29;;;;;;;19.23;12.63;;;;;;;12.52;81.54;99798.28;5067835;28;20415;-29
2022/11/06 01:31:54;;;;;;;27.73;13.60;;;;;;;12.63;80.93;99800.94;5067993;28;20104;-27
2022/11/06 01:34:20;;;;;;;23.88;12.57;;;;;;;12.51;81.19;99786.78;5050131;28;20123;-29
2022/11/06 01:36:45;;;;;;;21.42;12.32;;;;;;;12.50;81.42;99800.38;5050061;28;20025;-30
2022/11/06 01:39:12;;;;;;;25.27;12.55;;;;;;;12.64;80.97;99809.75;5049811;28;20415;-26
2022/11/06 01:41:44;;;;;;;22.30;12.38;;;;;;;12.49;80.85;99790.75;5068028;28;20142;-28
2022/11/06 01:44:34;;;;;;;19.67;13.05;;;;;;;12.60;81.04;99805.94;5067564;28;20029;-27
2022/11/06 01:47:02;;;;;;;21.35;11.88;;;;;;;12.46;82.09;99808.91;5067780;28;20024;-27
2022/11/06 01:49:29;;;;;;;;;;;;;;;12.64;81.08;99812.44;5068173;28;20112;-29
2022/11/06 01:51:59;;;;;;;29.50;13.77;;;;;;;12.39;82.09;99804.72;5067683;28;19912;-28
2022/11/06 01:54:28;;;;;;;20.08;11.07;;;;;;;12.52;81.86;99806.31;5049319;28;20416;-26
2022/11/06 01:56:56;;;;;;;23.23;12.75;;;;;;;12.44;82.09;99812.84;5050024;28;20122;-26
2022/11/06 01:59:26;;;;;;;21.33;11.80;;;;;;;12.48;82.10;99795.28;5049403;28;20477;-26
2022/11/06 02:01:52;;;;;;;20.10;12.00;;;;;;;12.46;82.26;99800.88;5067721;28;20043;-27
2022/11/06 02:04:30;;;;;;;23.10;13.48;;;;;;;12.44;82.06;99800.31;5067967;28;20032;-27
2022/11/06 02:06:58;;;;;;;22.73;12.02;;;;;;;12.41;81.86;99803.44;5067531;28;20119;-25
2022/11/06 02:09:24;;;;;;;25.48;13.60;;;;;;;12.53;82.05;99815.97;5067239;28;20032;-27
2022/11/06 02:11:55;;;;;;;23.20;12.57;;;;;;;12.52;81.86;99798.28;5067575;28;20037;-26
2022/11/06 02:14:45;;;;;;;21.08;12.45;;;;;;;12.36;82.64;99806.03;5067471;28;20021;-27
2022/11/06 02:17:32;;;;;;;18.85;12.10;;;;;;;12.34;82.38;99808.13;5067126;28;20451;-29
2022/11/06 02:20:42;;;;;;;22.23;12.53;;;;;;;12.42;82.41;99806.91;5066752;28;20046;-28
2022/11/06 02:23:42;;;;;;;22.83;13.75;;;;;;;12.24;82.52;99786.53;5045995;28;20397;-28
2022/11/06 02:26:13;;;;;;;19.85;12.57;;;;;;;12.35;82.30;99799.03;5067511;28;20059;-26
2022/11/06 02:28:54;;;;;;;23.45;13.27;;;;;;;12.13;83.46;99795.38;5067623;28;20097;-32
2022/11/06 02:31:25;;;;;;;22.80;14.00;;;;;;;12.11;83.46;99797.47;5067054;28;20032;-30
2022/11/06 02:34:00;;;;;;;22.30;13.32;;;;;;;11.99;84.25;99806.34;5066998;28;20024;-26
2022/11/06 02:36:31;;;;;;;23.25;13.73;;;;;;;11.98;84.82;99804.69;5049029;28;20495;-27
2022/11/06 02:39:01;;;;;;;23.77;14.18;;;;;;;11.95;85.19;99804.34;5066939;28;20032;-27
2022/11/06 02:41:34;;;;;;;20.48;13.13;;;;;;;11.98;85.65;99803.88;5066900;28;20032;-27
2022/11/06 02:44:02;;;;;;;22.25;14.07;;;;;;;12.01;85.13;99790.88;5067115;28;20035;-26
2022/11/06 02:46:37;;;;;;;23.27;13.65;;;;;;;11.93;85.63;99793.06;5066674;28;20025;-27
2022/11/06 02:49:12;;;;;;;22.13;13.18;;;;;;;12.01;85.76;99787.38;5049166;28;20090;-29
2022/11/06 02:51:48;;;;;;;25.73;13.60;;;;;;;12.04;85.70;99803.75;5067210;28;20036;-27
2022/11/06 02:54:17;;;;;;;25.92;13.82;;;;;;;12.19;85.37;99805.13;5066643;28;20488;-26
2022/11/06 02:56:49;;;;;;;27.00;13.95;;;;;;;12.17;85.60;99807.22;5066737;28;20042;-27
2022/11/06 02:59:23;;;;;;;26.95;14.23;;;;;;;11.98;86.37;99820.72;5066711;28;20182;-29
2022/11/06 03:01:53;;;;;;;26.63;13.82;;;;;;;12.18;84.94;99809.66;5048469;28;20071;-27
2022/11/06 03:04:29;;;;;;;29.92;14.82;;;;;;;11.89;86.18;99803.44;5065586;28;20029;-27
2022/11/06 03:07:13;;;;;;;30.83;14.82;;;;;;;11.94;86.26;99808.88;5066936;28;20044;-28
2022/11/06 03:09:39;;;;;;;30.00;15.48;;;;;;;11.97;86.53;99808.44;5066479;28;20029;-26
2022/11/06 03:12:20;;;;;;;25.27;15.48;;;;;;;11.89;86.33;99791.91;5048446;28;20035;-28
2022/11/06 03:14:51;;;;;;;21.60;14.57;;;;;;;11.89;86.30;99794.59;5067006;28;20028;-26
2022/11/06 03:17:36;;;;;;;22.70;16.35;;;;;;;12.02;85.86;99795.16;5048495;28;20040;-28
2022/11/06 03:20:35;;;;;;;31.48;15.65;;;;;;;12.18;85.94;99819.56;5066675;28;20040;-26
2022/11/06 03:23:14;;;;;;;27.75;14.80;;;;;;;11.99;86.57;99824.22;5048599;28;20129;-27
2022/11/06 03:25:49;;;;;;;25.50;15.20;;;;;;;11.90;86.71;99807.72;5048295;28;20032;-26
2022/11/06 03:28:34;;;;;;;23.77;13.90;;;;;;;12.00;86.25;99823.97;5066351;28;20032;-27
2022/11/06 03:31:08;;;;;;;31.45;15.15;;;;;;;11.79;86.69;99800.47;5066840;28;20059;-26
2022/11/06 03:33:51;;;;;;;26.42;15.13;;;;;;;11.99;86.23;99827.72;5066499;28;20032;-28
2022/11/06 03:36:33;;;;;;;25.30;15.70;;;;;;;11.97;85.47;99800.41;5066365;28;20051;-27
2022/11/06 03:39:03;;;;;;;22.73;13.80;;;;;;;11.91;86.35;99812.03;5066277;28;20032;-29
2022/11/06 03:41:56;;;;;;;22.83;14.57;;;;;;;11.94;86.54;99821.44;5066345;28;20381;-26
2022/11/06 03:44:25;;;;;;;21.45;13.98;;;;;;;11.68;87.25;99804.78;5070493;28;20063;-27
2022/11/06 03:47:07;;;;;;;24.10;14.65;;;;;;;11.88;86.83;99820.47;5070131;28;20407;-28
2022/11/06 03:49:40;;;;;;;25.27;14.48;;;;;;;12.08;85.75;99820.16;5070463;28;20033;-28
2022/11/06 03:52:12;;;;;;;25.30;16.15;;;;;;;11.72;87.52;99821.19;5070401;28;20025;-26
2022/11/06 03:54:43;;;;;;;26.08;16.90;;;;;;;11.65;88.43;99816.75;5052000;28;20090;-28
2022/11/06 03:57:14;;;;;;;24.52;15.85;;;;;;;11.89;87.34;99822.16;5070261;28;20033;-27
2022/11/06 03:59:45;;;;;;;24.50;14.80;;;;;;;11.77;88.01;99813.25;5069861;28;20028;-27
2022/11/06 04:02:12;;;;;;;24.42;15.82;;;;;;;11.72;89.25;99829.19;5069658;28;20507;-25
2022/11/06 04:04:51;;;;;;;27.35;16.15;;;;;;;11.81;89.40;99819.75;5069900;28;20048;-26
2022/11/06 04:07:21;;;;;;;27.75;16.45;;;;;;;11.90;89.57;99829.09;5069550;28;20052;-27
2022/11/06 04:15:24;;;;;;;30.33;16.52;;;;;;;12.04;88.93;99824.34;5069792;28;20045;-26
2022/11/06 04:17:50;;;;;;;33.25;16.65;;;;;;;11.94;88.57;99816.91;5069675;28;20039;-28
2022/11/06 04:23:30;;;;;;;23.27;16.23;;;;;;;12.25;87.92;99834.41;5069616;28;20129;-30
2022/11/06 04:29:04;;;;;;;23.58;14.85;;;;;;;12.26;87.22;99822.66;5069777;28;20071;-29
2022/11/06 04:31:30;;;;;;;26.90;15.70;;;;;;;12.21;87.49;99827.88;5069761;28;20034;-28
2022/11/06 04:33:55;;;;;;;25.70;14.60;;;;;;;12.34;86.25;99818.81;5069276;28;20404;-27
2022/11/06 04:37:02;;;;;;;26.15;15.43;;;;;;;12.00;87.42;99802.59;5069396;28;20432;-26
2022/11/06 04:39:40;;;;;;;23.10;14.15;;;;;;;12.10;87.25;99801.22;5068749;28;20040;-27
2022/11/06 04:42:08;;;;;;;18.50;14.73;;;;;;;12.22;86.64;99815.38;5069227;28;20036;-27
2022/11/06 04:44:42;;;;;;;22.63;14.55;;;;;;;12.26;85.76;99803.16;5069588;28;20036;-26
2022/11/06 04:47:12;;;;;;;32.25;14.82;;;;;;;12.32;85.56;99798.69;5067733;28;20643;-26
2022/11/06 04:49:41;;;;;;;22.27;15.07;;;;;;;12.30;85.69;99806.97;5067994;28;20028;-28
2022/11/06 04:52:11;;;;;;;22.75;15.02;;;;;;;12.21;85.53;99795.81;5069185;28;20029;-26
2022/11/06 04:54:37;;;;;;;26.02;14.13;;;;;;;12.25;85.64;99813.00;5069167;28;20032;-26
2022/11/06 04:57:03;;;;;;;26.08;15.73;;;;;;;12.27;85.24;99797.53;5067610;28;20570;-29
2022/11/06 04:59:33;;;;;;;25.55;15.15;;;;;;;12.37;85.12;99807.63;5068708;28;20032;-26
2022/11/06 05:01:59;;;;;;;27.25;14.43;;;;;;;12.27;85.58;99807.44;5068654;28;20043;-25
2022/11/06 05:04:24;;;;;;;23.00;14.00;;;;;;;12.37;85.03;99804.16;5069019;28;20432;-27
2022/11/06 05:06:50;;;;;;;25.27;14.32;;;;;;;12.49;83.97;99807.59;5068471;28;20097;-27
2022/11/06 05:09:15;;;;;;;23.25;14.35;;;;;;;12.42;84.53;99805.06;5050740;28;20101;-27
2022/11/06 05:11:41;;;;;;;24.10;14.07;;;;;;;12.35;84.41;99790.22;5068593;28;20393;-27
2022/11/06 05:14:06;;;;;;;24.17;14.63;;;;;;;12.43;84.61;99812.03;5050812;28;20047;-27
2022/11/06 05:16:32;;;;;;;21.65;13.57;;;;;;;12.57;83.94;99817.13;5069675;28;20131;-27
2022/11/06 05:18:57;;;;;;;27.02;14.07;;;;;;;12.63;83.34;99806.28;5069569;28;20028;-27
2022/11/06 05:24:07;;;;;;;23.27;13.27;;;;;;;12.70;82.54;99816.03;5069737;28;20055;-25
2022/11/06 05:26:32;;;;;;;21.65;13.57;;;;;;;12.45;83.60;99825.97;5051295;28;20472;-26
2022/11/06 05:28:58;;;;;;;24.15;14.02;;;;;;;12.25;84.70;99833.59;5069250;28;20033;-29
2022/11/06 05:31:24;;;;;;;21.83;12.80;;;;;;;12.35;84.20;99820.44;5069379;28;20029;-27
2022/11/06 05:33:50;;;;;;;21.80;13.07;;;;;;;12.33;83.58;99829.75;5051405;28;20389;-29
2022/11/06 05:36:15;;;;;;;29.65;13.77;;;;;;;12.63;82.90;99845.59;5068928;28;20031;-27
2022/11/06 05:38:41;;;;;;;23.98;13.73;;;;;;;12.70;81.94;99837.44;5068973;28;20029;-26
2022/11/06 05:41:06;;;;;;;24.98;13.20;;;;;;;12.74;81.15;99854.63;5069164;28;20245;-28
2022/11/06 05:43:32;;;;;;;23.83;13.85;;;;;;;12.83;80.78;99872.75;5068672;28;20101;-28
2022/11/06 05:45:59;;;;;;;23.08;13.45;;;;;;;12.52;81.16;99846.44;5050806;28;20029;-27
2022/11/06 05:48:25;;;;;;;24.88;14.60;;;;;;;12.58;81.93;99858.88;5050769;28;20036;-26
2022/11/06 05:50:50;;;;;;;31.85;16.88;;;;;;;12.64;81.79;99871.28;5068947;28;20591;-26
2022/11/06 05:53:16;;;;;;;24.75;15.70;;;;;;;12.75;81.40;99867.78;5068707;28;20095;-29
2022/11/06 05:55:41;;;;;;;42.13;24.92;;;;;;;12.56;81.86;99866.31;5067328;28;20024;-28
2022/11/06 05:58:07;;;;;;;31.27;18.23;;;;;;;12.64;82.16;99895.38;5068541;28;20036;-28
2022/11/06 06:00:32;;;;;;;29.73;17.02;;;;;;;12.74;82.31;99886.75;5050769;28;20103;-26
2022/11/06 06:02:57;;;;;;;21.45;12.10;;;;;;;12.83;81.52;99886.13;5050594;28;20035;-27
2022/11/06 06:05:23;;;;;;;28.63;16.65;;;;;;;12.76;81.73;99864.03;5067730;28;20029;-27
2022/11/06 06:07:48;;;;;;;24.48;14.43;;;;;;;12.89;81.55;99884.34;5050366;28;20039;-26
2022/11/06 06:10:14;;;;;;;19.60;11.90;;;;;;;12.78;81.69;99875.31;5068206;28;20040;-25
2022/11/06 06:12:39;;;;;;;18.38;11.25;;;;;;;12.92;81.76;99893.78;5068656;28;20025;-29
2022/11/06 06:15:06;;;;;;;22.75;15.00;;;;;;;12.84;82.12;99897.63;5068309;28;20494;-28
2022/11/06 06:17:32;;;;;;;25.98;16.52;;;;;;;12.82;82.27;99894.41;5068450;28;20083;-27
2022/11/06 06:19:57;;;;;;;20.90;12.52;;;;;;;12.91;82.74;99908.19;5050070;28;20446;-28
2022/11/06 06:22:23;;;;;;;19.50;11.35;;;;;;;13.02;81.72;99915.41;5068348;28;20081;-27
2022/11/06 06:24:48;;;;;;;22.60;10.82;;;;;;;13.05;81.74;99912.22;5068285;28;20036;-27
2022/11/06 06:27:13;;;;;;;24.40;13.23;;;;;;;13.16;81.51;99927.44;5068037;28;20028;-26
2022/11/06 06:29:39;;;;;;;35.03;16.27;;;;;;;13.25;81.64;99936.69;5068080;28;20111;-27
2022/11/06 06:32:05;;;;;;;33.97;17.70;;;;;;;13.18;81.16;99928.00;5068365;28;20488;-27
2022/11/06 06:34:30;;;;;;;28.48;15.32;;;;;;;13.03;81.30;99906.28;5050077;28;20032;-29
2022/11/06 06:36:55;;;;;;;28.52;16.35;;;;;;;13.12;81.73;99941.53;5068198;28;20039;-26
2022/11/06 06:39:21;;;;;;;24.73;15.38;;;;;;;13.03;82.00;99939.22;5049872;28;20043;-27
2022/11/06 06:41:47;;;;;;;23.42;13.90;;;;;;;13.04;82.04;99932.03;5068034;28;20024;-26
2022/11/06 06:44:13;;;;;;;24.67;12.48;;;;;;;13.13;81.92;99948.53;5067911;28;20061;-25
2022/11/06 06:46:39;;;;;;;20.70;13.00;;;;;;;13.10;82.43;99955.16;5068264;28;20532;-28
2022/11/06 06:49:05;;;;;;;29.98;14.57;;;;;;;12.88;82.99;99938.13;5067956;28;20036;-27
2022/11/06 06:51:30;;;;;;;27.85;14.68;;;;;;;13.12;82.99;99955.75;5054723;28;20024;-28
2022/11/06 06:53:56;;;;;;;23.48;13.45;;;;;;;13.20;82.90;99963.41;5087766;28;20028;-26
2022/11/06 06:56:21;;;;;;;25.83;14.48;;;;;;;13.20;83.04;99965.28;5088121;28;20028;-28
2022/11/06 06:58:47;;;;;;;21.88;13.93;;;;;;;13.07;82.81;99963.66;5088193;28;20108;-26
2022/11/06 07:01:12;;;;;;;24.95;14.48;;;;;;;13.10;82.74;99960.53;5088015;28;20020;-28
2022/11/06 07:03:38;;;;;;;23.77;14.05;;;;;;;13.26;81.93;99961.63;5087982;28;20545;-29
2022/11/06 07:06:05;;;;;;;27.25;16.73;;;;;;;13.27;81.85;99956.03;5087681;28;20052;-28
2022/11/06 07:08:31;;;;;;;36.70;21.13;;;;;;;13.31;81.25;99960.94;5087846;28;20028;-26
2022/11/06 07:11:01;;;;;;;58.85;30.75;;;;;;;13.16;81.70;99932.78;5087764;28;20032;-27
2022/11/06 07:13:27;;;;;;;104.50;48.25;;;;;;;13.39;81.27;99956.00;5069845;28;20507;-27
2022/11/06 07:15:52;;;;;;;77.22;38.45;;;;;;;13.53;80.74;99953.03;5087982;28;20032;-29
2022/11/06 07:18:18;;;;;;;291.52;116.85;;;;;;;13.20;81.42;99941.97;5073750;28;20479;-29
2022/11/06 07:20:43;;;;;;;144.13;61.50;;;;;;;13.42;81.07;99950.19;5091976;28;20024;-26
2022/11/06 07:23:09;;;;;;;232.40;96.90;;;;;;;13.55;81.00;99946.38;5091928;28;20035;-26
2022/11/06 07:25:34;;;;;;;98.75;44.38;;;;;;;13.61;80.86;99955.34;5091822;28;20500;-27
2022/11/06 07:28:03;;;;;;;44.17;24.58;;;;;;;13.56;80.69;99942.63;5091651;28;20024;-27
2022/11/06 07:30:29;;;;;;;27.23;16.58;;;;;;;13.99;79.31;99961.84;5091931;28;20035;-27
2022/11/06 07:32:55;;;;;;;25.63;15.50;;;;;;;13.63;80.24;99927.25;5091618;28;20102;-29
2022/11/06 07:35:21;;;;;;;26.83;15.43;;;;;;;13.88;79.52;99939.44;5090229;28;20158;-27
2022/11/06 07:37:46;;;;;;;22.67;14.93;;;;;;;14.00;79.10;99948.19;5071987;28;20032;-26
2022/11/06 07:40:13;;;;;;;22.85;15.95;;;;;;;13.93;79.13;99926.09;5090154;28;20515;-29
2022/11/06 07:42:39;;;;;;;26.20;15.00;;;;;;;14.10;78.83;99938.69;5090594;28;20732;-27
2022/11/06 07:45:05;;;;;;;32.42;16.08;;;;;;;14.30;78.77;99955.06;5090534;28;20717;-27
2022/11/06 07:47:31;;;;;;;38.92;19.50;;;;;;;14.31;79.00;99940.63;5090542;28;20031;-27
2022/11/06 07:49:56;;;;;;;57.60;25.13;;;;;;;14.42;78.90;99949.59;5089915;28;20032;-27
2022/11/06 07:52:21;;;;;;;58.78;24.45;;;;;;;14.57;78.67;99951.75;5071928;28;20039;-27
2022/11/06 07:54:47;;;;;;;25.88;14.15;;;;;;;14.70;77.90;99946.00;5071580;28;20514;-28
2022/11/06 07:57:13;;;;;;;23.05;13.57;;;;;;;14.70;77.61;99929.91;5090387;28;20092;-25
2022/11/06 07:59:38;;;;;;;26.50;14.98;;;;;;;14.84;77.51;99952.63;5089937;28;20036;-26
2022/11/06 08:02:04;;;;;;;27.63;15.00;;;;;;;14.98;77.46;99957.63;5089992;28;20085;-27
2022/11/06 08:04:29;;;;;;;29.35;15.20;;;;;;;14.89;77.56;99948.38;5089949;28;20524;-26
2022/11/06 08:06:56;;;;;;;28.52;16.90;;;;;;;14.93;77.39;99952.19;5090089;28;20055;-28
2022/11/06 08:09:23;;;;;;;40.85;20.10;;;;;;;15.06;76.91;99943.75;5089775;28;20031;-27
2022/11/06 08:11:49;;;;;;;46.58;23.10;;;;;;;14.96;77.65;99947.13;5090096;28;20147;-30
2022/11/06 08:14:15;;;;;;;29.50;16.80;;;;;;;14.94;77.67;99946.56;5089805;28;20642;-30
2022/11/06 08:16:40;;;;;;;24.63;15.35;;;;;;;15.23;76.11;99959.78;5089936;28;20034;-26
2022/11/06 08:19:06;;;;;;;32.00;19.83;;;;;;;15.31;75.86;99955.84;5071607;28;20020;-32
2022/11/06 08:21:31;;;;;;;180.48;81.80;;;;;;;15.35;75.34;99968.50;5089737;28;20114;-28
2022/11/06 08:23:57;;;;;;;306.55;119.88;;;;;;;15.43;74.78;99964.56;5089341;28;20024;-31
2022/11/06 08:26:22;;;;;;;35.75;17.90;;;;;;;15.43;75.15;99975.31;5089886;28;20032;-26
2022/11/06 08:28:48;;;;;;;28.60;14.50;;;;;;;15.13;76.12;99957.78;5087613;28;20038;-27
2022/11/06 08:31:13;;;;;;;24.70;13.25;;;;;;;15.55;75.04;99972.47;5089626;28;20036;-28
2022/11/06 08:33:39;;;;;;;24.55;13.20;;;;;;;15.44;74.21;99956.22;5089348;28;20031;-28
2022/11/06 08:36:06;;;;;;;22.92;12.98;;;;;;;15.70;73.85;99969.94;5071100;28;20024;-26
2022/11/06 08:38:32;;;;;;;23.83;12.90;;;;;;;15.65;73.99;99954.56;5070659;28;20020;-27
2022/11/06 08:40:57;;;;;;;30.10;17.42;;;;;;;15.66;74.19;99964.25;5070931;28;20388;-28
2022/11/06 08:43:26;;;;;;;27.77;17.20;;;;;;;15.73;73.63;99952.50;5089352;28;20514;-26
2022/11/06 08:45:51;;;;;;;23.02;13.77;;;;;;;15.96;73.04;99957.53;5089429;28;20032;-27
2022/11/06 08:48:17;;;;;;;22.85;13.23;;;;;;;16.19;72.16;99966.31;5089504;28;20040;-27
2022/11/06 08:50:42;;;;;;;22.23;13.77;;;;;;;16.35;72.77;99986.06;5089107;28;20024;-27
2022/11/06 08:53:08;;;;;;;22.80;12.23;;;;;;;16.23;72.02;99983.56;5089201;28;20040;-29
2022/11/06 08:55:36;;;;;;;22.73;11.98;;;;;;;16.51;71.47;99993.19;5089125;28;20257;-27
2022/11/06 08:58:02;;;;;;;27.48;11.70;;;;;;;16.50;71.17;99977.28;5088816;28;20411;-28
2022/11/06 09:00:28;;;;;;;23.33;11.75;;;;;;;16.70;70.18;99988.16;5088852;28;20054;-26
2022/11/06 09:03:02;;;;;;;30.98;15.80;;;;;;;16.45;70.64;99970.00;5070665;28;20024;-27
2022/11/06 09:05:28;;;;;;;46.97;21.52;;;;;;;16.97;69.43;99992.63;5087397;28;20060;-28
2022/11/06 09:07:55;;;;;;;32.35;16.45;;;;;;;17.08;68.26;100005.09;5088452;28;20491;-27
2022/11/06 09:10:21;;;;;;;44.67;21.40;;;;;;;16.72;69.64;100002.19;5088918;28;20081;-26
2022/11/06 09:12:46;;;;;;;25.75;12.73;;;;;;;16.54;70.12;99986.47;5089000;28;20032;-29
2022/11/06 09:15:12;;;;;;;21.58;12.07;;;;;;;16.62;69.35;99985.97;5088858;28;20024;-26
2022/11/06 09:17:44;;;;;;;20.67;12.05;;;;;;;16.71;69.12;99994.34;5088451;28;20676;-27
2022/11/06 09:20:10;;;;;;;21.92;11.52;;;;;;;16.94;68.33;100003.91;5088198;28;20035;-27
2022/11/06 09:22:36;;;;;;;21.58;11.40;;;;;;;16.87;68.10;100021.13;5088665;28;20042;-27
2022/11/06 09:25:02;;;;;;;31.08;14.80;;;;;;;17.07;67.33;100006.16;5088711;28;20423;-26
2022/11/06 09:27:27;;;;;;;27.48;13.25;;;;;;;16.98;67.81;100005.00;5088502;28;20114;-29
2022/11/06 09:29:53;;;;;;;28.38;13.02;;;;;;;17.22;67.66;100027.78;5069915;28;20036;-30
2022/11/06 09:32:18;;;;;;;21.48;12.95;;;;;;;17.46;66.44;100016.50;5088597;28;20384;-28
2022/11/06 09:34:44;;;;;;;28.92;16.10;;;;;;;17.63;65.89;100022.50;5070146;28;20028;-27
2022/11/06 09:37:09;;;;;;;22.88;12.52;;;;;;;17.74;65.54;100017.13;5088449;28;20035;-29
2022/11/06 09:39:34;;;;;;;18.67;11.60;;;;;;;17.59;65.23;100016.03;5087607;28;20028;-26
2022/11/06 09:42:09;;;;;;;27.42;12.73;;;;;;;17.84;64.77;99990.19;5087733;28;20487;-26
2022/11/06 09:44:34;;;;;;;21.42;11.75;;;;;;;18.25;63.16;100007.19;5088250;28;20028;-28
2022/11/06 09:47:08;;;;;;;23.88;13.32;;;;;;;18.40;62.63;99990.16;5088523;28;20039;-27
2022/11/06 09:49:40;;;;;;;22.80;12.23;;;;;;;18.83;61.77;99998.72;5087867;28;20045;-29
2022/11/06 09:52:18;;;;;;;19.25;12.52;;;;;;;19.41;59.44;99994.66;5088023;28;20100;-27
2022/11/06 09:54:54;;;;;;;22.05;12.85;;;;;;;19.67;59.04;99979.91;5088250;28;20051;-26
2022/11/06 09:57:32;;;;;;;19.85;12.18;;;;;;;19.28;59.46;99977.97;5088011;28;20450;-30
2022/11/06 10:00:00;;;;;;;22.83;13.07;;;;;;;19.02;60.43;99982.72;5087521;28;20604;-27
2022/11/06 10:02:36;;;;;;;19.60;11.65;;;;;;;18.83;60.10;99974.41;5069475;28;20047;-26
2022/11/06 10:05:10;;;;;;;21.85;11.63;;;;;;;19.50;58.40;99970.56;5087958;28;20385;-29
2022/11/06 10:07:40;;;;;;;21.42;10.95;;;;;;;19.62;58.45;99968.31;5087873;28;20416;-29
2022/11/06 10:10:10;;;;;;;20.08;11.07;;;;;;;19.67;58.04;99968.28;5087433;28;20052;-27
2022/11/06 10:12:56;;;;;;;23.20;12.25;;;;;;;19.50;58.29;99979.50;5087894;28;20069;-26
2022/11/06 10:15:33;;;;;;;18.35;10.77;;;;;;;19.34;58.52;99978.75;5088111;28;20031;-29
2022/11/06 10:18:26;;;;;;;18.58;10.95;;;;;;;19.73;58.37;99985.31;5087502;28;20043;-30
2022/11/06 10:20:56;;;;;;;20.95;11.55;;;;;;;19.51;58.39;99981.09;5087447;28;20038;-27
2022/11/06 10:23:48;;;;;;;33.63;18.23;;;;;;;19.61;58.30;99966.69;5069284;28;20024;-29
2022/11/06 10:26:36;;;;;;;41.65;26.42;;;;;;;19.48;57.90;99951.91;5069061;28;20045;-30
2022/11/06 10:29:21;;;;;;;23.08;13.05;;;;;;;19.58;57.85;99959.16;5068962;28;20111;-27
2022/11/06 10:31:52;;;;;;;25.63;13.05;;;;;;;19.41;58.73;99962.22;5087777;28;20054;-27
2022/11/06 10:34:36;;;;;;;21.35;13.35;;;;;;;19.52;58.61;99961.09;5087315;28;20032;-27
2022/11/06 10:37:07;;;;;;;21.30;11.35;;;;;;;19.41;58.44;99956.81;5087080;28;20024;-26
2022/11/06 10:39:35;;;;;;;22.33;11.50;;;;;;;19.28;58.72;99937.41;5086978;28;20038;-28
2022/11/06 10:42:22;;;;;;;19.25;11.50;;;;;;;19.32;58.68;99953.91;5087130;28;20035;-30
2022/11/06 10:45:03;;;;;;;24.80;13.80;;;;;;;19.27;59.35;99952.03;5087264;28;20036;-28
2022/11/06 10:47:38;;;;;;;33.38;16.20;;;;;;;19.47;58.31;99950.28;5087180;28;20105;-27
2022/11/06 10:50:10;;;;;;;31.73;16.73;;;;;;;19.26;59.36;99945.00;5087009;28;20042;-29
2022/11/06 10:52:42;;;;;;;22.88;12.20;;;;;;;19.01;59.89;99945.16;5068693;28;20388;-27
2022/11/06 10:55:32;;;;;;;22.25;11.50;;;;;;;19.22;59.85;99951.25;5087003;28;20028;-26
2022/11/06 10:58:01;;;;;;;53.83;25.70;;;;;;;19.35;59.11;99936.31;5086611;28;20082;-30
2022/11/06 11:00:27;;;;;;;37.45;19.80;;;;;;;19.33;59.64;99931.19;5086777;28;20088;-27
2022/11/06 11:02:56;;;;;;;30.52;16.25;;;;;;;19.35;58.80;99939.00;5086956;28;20032;-27
2022/11/06 11:05:23;;;;;;;24.60;13.93;;;;;;;19.51;58.52;99929.69;5087069;28;20097;-32
2022/11/06 11:07:50;;;;;;;28.13;16.00;;;;;;;19.63;58.47;99919.31;5068545;28;20146;-29
2022/11/06 11:10:21;;;;;;;30.83;13.63;;;;;;;19.99;57.55;99934.50;5068322;28;20071;-26
2022/11/06 11:12:48;;;;;;;18.77;10.43;;;;;;;20.01;56.79;99926.91;5066039;28;20028;-29
2022/11/06 11:15:19;;;;;;;18.80;10.77;;;;;;;19.97;56.29;99909.63;5077372;28;20037;-28
2022/11/06 11:18:10;;;;;;;18.98;11.07;;;;;;;20.21;55.75;99925.91;5086029;28;20028;-28
2022/11/06 11:20:40;;;;;;;30.10;13.63;;;;;;;20.54;56.07;99928.81;5066755;28;20031;-27
2022/11/06 11:23:23;;;;;;;19.98;10.23;;;;;;;21.17;53.40;99923.16;5066622;28;20384;-27
2022/11/06 11:25:54;;;;;;;19.50;11.35;;;;;;;21.17;53.05;99909.59;5066772;28;20036;-28
2022/11/06 11:28:33;;;;;;;21.35;9.98;;;;;;;21.41;52.16;99924.97;5064948;28;20036;-29
2022/11/06 11:31:06;;;;;;;19.92;10.13;;;;;;;21.53;52.18;99927.25;5066538;28;20465;-30
2022/11/06 11:33:32;;;;;;;25.67;11.48;;;;;;;21.72;51.64;99909.06;5066332;28;20783;-28
2022/11/06 11:35:58;;;;;;;19.25;12.60;;;;;;;21.40;52.20;99899.75;5066324;28;20107;-27
2022/11/06 11:38:24;;;;;;;25.85;11.38;;;;;;;21.33;52.19;99906.63;5064860;28;20798;-27
2022/11/06 11:40:51;;;;;;;16.17;9.85;;;;;;;21.65;51.65;99917.56;5066656;28;20081;-31
2022/11/06 11:43:27;;;;;;;15.45;9.13;;;;;;;21.85;51.20;99902.03;5066677;28;20067;-30
2022/11/06 11:46:04;;;;;;;18.08;9.43;;;;;;;22.27;50.41;99911.06;5066190;28;20028;-29